createdAt,value
2022-10-26T00:00:53.837Z,0.80
2022-10-26T00:03:22.400Z,0.68
2022-10-26T00:05:52.406Z,0.70
2022-10-26T00:08:20.972Z,0.70
2022-10-26T00:10:49.604Z,0.65
2022-10-26T00:13:18.169Z,0.70
2022-10-26T00:15:46.898Z,0.73
2022-10-26T00:18:15.466Z,0.70
2022-10-26T00:20:44.006Z,0.70
2022-10-26T00:23:14.249Z,0.90
2022-10-26T00:25:42.831Z,0.80
2022-10-26T00:28:11.455Z,0.80
2022-10-26T00:30:40.960Z,0.90
2022-10-26T00:33:12.321Z,0.98
2022-10-26T00:35:46.087Z,0.70
2022-10-26T00:38:16.411Z,0.80
2022-10-26T00:40:45.389Z,0.70
2022-10-26T00:43:17.639Z,0.60
2022-10-26T00:45:46.694Z,0.90
2022-10-26T00:48:20.903Z,0.80
2022-10-26T00:50:49.936Z,0.70
2022-10-26T00:53:19.976Z,0.93
2022-10-26T00:55:50.510Z,0.85
2022-10-26T00:58:19.521Z,1.10
2022-10-26T01:00:48.529Z,1.10
2022-10-26T01:03:17.853Z,1.23
2022-10-26T01:05:47.735Z,0.90
2022-10-26T01:08:17.821Z,1.17
2022-10-26T01:10:47.882Z,1.35
2022-10-26T01:13:17.556Z,0.90
2022-10-26T01:15:52.418Z,0.95
2022-10-26T01:18:27.593Z,0.85
2022-10-26T01:21:04.936Z,0.80
2022-10-26T01:23:36.089Z,0.75
2022-10-26T01:26:15.356Z,0.70
2022-10-26T01:28:54.004Z,0.70
2022-10-26T01:31:29.810Z,0.75
2022-10-26T01:34:03.306Z,0.80
2022-10-26T01:36:34.607Z,0.70
2022-10-26T01:39:06.908Z,0.80
2022-10-26T01:41:38.116Z,0.65
2022-10-26T01:44:08.222Z,0.73
2022-10-26T01:46:40.110Z,0.90
2022-10-26T01:49:10.036Z,0.80
2022-10-26T01:51:40.133Z,0.80
2022-10-26T01:54:08.677Z,0.80
2022-10-26T01:56:38.758Z,0.75
2022-10-26T01:59:31.508Z,0.70
2022-10-26T02:02:11.822Z,0.90
2022-10-26T02:04:44.138Z,0.88
2022-10-26T02:07:16.509Z,0.80
2022-10-26T02:09:48.311Z,0.70
2022-10-26T02:12:19.764Z,0.80
2022-10-26T02:14:51.349Z,0.70
2022-10-26T02:17:25.911Z,0.70
2022-10-26T02:19:57.027Z,0.85
2022-10-26T02:22:27.192Z,0.60
2022-10-26T02:24:56.271Z,0.50
2022-10-26T02:27:25.869Z,0.50
2022-10-26T02:29:56.862Z,0.60
2022-10-26T02:32:28.117Z,0.50
2022-10-26T02:34:57.180Z,0.60
2022-10-26T02:37:27.736Z,0.60
2022-10-26T02:39:57.492Z,0.60
2022-10-26T02:42:26.760Z,0.52
2022-10-26T02:44:57.848Z,0.50
2022-10-26T02:47:28.332Z,0.52
2022-10-26T02:49:57.393Z,0.70
2022-10-26T02:52:29.733Z,0.60
2022-10-26T02:55:02.361Z,0.50
2022-10-26T02:57:32.140Z,0.68
2022-10-26T03:00:01.066Z,0.60
2022-10-26T03:02:31.342Z,0.70
2022-10-26T03:05:08.334Z,0.50
2022-10-26T03:07:36.883Z,0.60
2022-10-26T03:10:05.563Z,0.60
2022-10-26T03:12:34.119Z,0.70
2022-10-26T03:15:02.710Z,0.80
2022-10-26T03:17:32.657Z,0.68
2022-10-26T03:20:01.244Z,0.60
2022-10-26T03:22:29.921Z,0.68
2022-10-26T03:24:58.646Z,0.80
2022-10-26T03:27:27.282Z,0.70
2022-10-26T03:29:55.913Z,0.70
2022-10-26T03:32:24.450Z,0.65
2022-10-26T03:34:54.467Z,0.60
2022-10-26T03:37:23.044Z,0.80
2022-10-26T03:39:51.621Z,0.70
2022-10-26T03:42:20.216Z,0.70
2022-10-26T03:44:48.852Z,0.60
2022-10-26T03:47:17.384Z,0.70
2022-10-26T03:49:45.961Z,0.80
2022-10-26T03:52:15.887Z,0.60
2022-10-26T03:54:44.456Z,0.60
2022-10-26T03:57:13.030Z,0.70
2022-10-26T03:59:41.791Z,0.73
2022-10-26T04:02:12.029Z,0.70
2022-10-26T04:04:40.726Z,0.60
2022-10-26T04:07:09.331Z,0.80
2022-10-26T04:09:39.307Z,0.70
2022-10-26T04:12:08.707Z,0.70
2022-10-26T04:14:37.390Z,0.80
2022-10-26T04:17:05.960Z,0.70
2022-10-26T04:19:34.536Z,0.60
2022-10-26T04:22:03.116Z,0.60
2022-10-26T04:24:31.681Z,0.75
2022-10-26T04:27:01.589Z,0.75
2022-10-26T04:29:30.169Z,0.65
2022-10-26T04:31:58.719Z,0.82
2022-10-26T04:34:27.346Z,0.70
2022-10-26T04:36:57.037Z,0.70
2022-10-26T04:39:25.777Z,0.82
2022-10-26T04:41:55.415Z,0.90
2022-10-26T04:44:25.344Z,0.90
2022-10-26T04:46:53.896Z,0.90
2022-10-26T04:49:22.577Z,0.70
2022-10-26T04:51:51.199Z,0.70
2022-10-26T04:54:19.760Z,0.80
2022-10-26T04:56:48.319Z,1.33
2022-10-26T04:59:17.180Z,0.90
2022-10-26T05:01:47.223Z,1.00
2022-10-26T05:04:16.216Z,0.90
2022-10-26T05:06:44.800Z,0.90
2022-10-26T05:09:13.355Z,0.90
2022-10-26T05:11:41.929Z,0.80
2022-10-26T05:14:10.807Z,1.10
2022-10-26T05:16:39.444Z,0.70
2022-10-26T05:19:09.461Z,1.23
2022-10-26T05:21:38.157Z,0.85
2022-10-26T05:24:10.101Z,0.80
2022-10-26T05:26:40.982Z,0.88
2022-10-26T05:29:09.649Z,0.70
2022-10-26T05:31:38.337Z,0.80
2022-10-26T05:34:07.059Z,0.70
2022-10-26T05:36:36.992Z,0.60
2022-10-26T05:39:05.724Z,0.60
2022-10-26T05:41:34.389Z,0.80
2022-10-26T05:44:03.010Z,0.80
2022-10-26T05:46:31.567Z,0.70
2022-10-26T05:49:00.303Z,0.88
2022-10-26T05:51:28.863Z,0.80
2022-10-26T05:53:58.896Z,0.90
2022-10-26T05:56:35.780Z,0.80
2022-10-26T05:59:05.127Z,0.90
2022-10-26T06:01:40.549Z,0.70
2022-10-26T06:04:14.346Z,1.00
2022-10-26T06:06:45.969Z,0.90
2022-10-26T06:09:16.749Z,0.85
2022-10-26T06:11:45.897Z,0.70
2022-10-26T06:14:14.785Z,0.93
2022-10-26T06:16:50.040Z,0.80
2022-10-26T06:19:24.758Z,0.80
2022-10-26T06:21:58.871Z,0.85
2022-10-26T06:24:34.227Z,1.02
2022-10-26T06:27:06.222Z,0.80
2022-10-26T06:29:43.988Z,1.10
2022-10-26T06:32:12.850Z,0.90
2022-10-26T06:34:45.317Z,0.80
2022-10-26T06:37:14.897Z,1.00
2022-10-26T06:39:48.822Z,0.90
2022-10-26T06:42:20.626Z,0.90
2022-10-26T06:44:49.656Z,0.90
2022-10-26T06:47:23.451Z,0.70
2022-10-26T06:49:58.252Z,0.70
2022-10-26T06:52:31.533Z,0.70
2022-10-26T06:55:01.893Z,0.63
2022-10-26T06:57:31.852Z,0.88
2022-10-26T07:00:01.662Z,0.70
2022-10-26T07:02:30.631Z,0.50
2022-10-26T07:04:59.288Z,0.75
2022-10-26T07:07:29.304Z,0.80
2022-10-26T07:09:57.991Z,0.70
2022-10-26T07:12:32.156Z,0.85
2022-10-26T07:15:01.894Z,0.60
2022-10-26T07:17:30.625Z,0.80
2022-10-26T07:19:59.316Z,0.63
2022-10-26T07:22:27.878Z,0.70
2022-10-26T07:24:58.081Z,0.82
2022-10-26T07:27:30.562Z,0.50
2022-10-26T07:30:00.298Z,0.60
2022-10-26T07:32:28.873Z,1.00
2022-10-26T07:34:57.537Z,0.80
2022-10-26T07:37:26.091Z,0.90
2022-10-26T07:39:54.815Z,0.80
2022-10-26T07:42:24.723Z,1.00
2022-10-26T07:44:54.947Z,0.80
2022-10-26T07:47:23.571Z,0.70
2022-10-26T07:49:52.128Z,0.57
2022-10-26T07:52:20.700Z,0.65
2022-10-26T07:54:49.267Z,0.70
2022-10-26T07:57:18.185Z,0.70
2022-10-26T07:59:46.921Z,0.70
2022-10-26T08:02:17.068Z,0.70
2022-10-26T08:04:45.709Z,0.80
2022-10-26T08:07:14.252Z,0.80
2022-10-26T08:09:42.814Z,0.90
2022-10-26T08:12:13.589Z,0.80
2022-10-26T08:14:42.157Z,0.98
2022-10-26T08:17:10.982Z,0.70
2022-10-26T08:19:40.986Z,0.80
2022-10-26T08:22:10.124Z,0.80
2022-10-26T08:24:38.772Z,0.65
2022-10-26T08:27:08.375Z,0.70
2022-10-26T08:29:36.943Z,0.80
2022-10-26T08:32:05.728Z,0.73
2022-10-26T08:34:34.296Z,0.77
2022-10-26T08:37:04.230Z,0.88
2022-10-26T08:39:32.852Z,0.60
2022-10-26T08:42:05.966Z,0.60
2022-10-26T08:44:37.474Z,0.70
2022-10-26T08:47:08.508Z,0.80
2022-10-26T08:49:41.245Z,1.17
2022-10-26T08:52:13.673Z,0.70
2022-10-26T08:54:44.170Z,0.80
2022-10-26T08:57:16.088Z,0.90
2022-10-26T08:59:49.027Z,0.80
2022-10-26T09:02:18.110Z,0.70
2022-10-26T09:04:46.941Z,1.38
2022-10-26T09:07:22.846Z,0.82
2022-10-26T09:09:54.565Z,0.82
2022-10-26T09:12:26.223Z,0.80
2022-10-26T09:15:01.724Z,0.77
2022-10-26T09:17:37.360Z,0.70
2022-10-26T09:20:14.264Z,0.80
2022-10-26T09:22:48.443Z,0.73
2022-10-26T09:25:20.127Z,0.90
2022-10-26T09:27:51.031Z,0.90
2022-10-26T09:30:20.957Z,0.60
2022-10-26T09:32:50.488Z,0.60
2022-10-26T09:35:20.964Z,0.60
2022-10-26T09:37:53.895Z,0.60
2022-10-26T09:40:24.957Z,0.60
2022-10-26T09:42:56.406Z,0.52
2022-10-26T09:45:27.831Z,0.70
2022-10-26T09:47:58.512Z,0.65
2022-10-26T09:50:29.034Z,0.60
2022-10-26T09:52:58.984Z,0.60
2022-10-26T09:55:28.260Z,0.70
2022-10-26T09:57:58.399Z,0.85
2022-10-26T10:00:28.805Z,0.95
2022-10-26T10:02:58.217Z,0.60
2022-10-26T10:08:22.270Z,0.40
2022-10-26T10:10:58.420Z,0.50
2022-10-26T10:13:28.574Z,0.60
2022-10-26T10:15:59.156Z,0.50
2022-10-26T10:18:27.790Z,0.60
2022-10-26T10:20:57.932Z,0.70
2022-10-26T10:23:32.295Z,0.50
2022-10-26T10:26:01.749Z,0.60
2022-10-26T10:28:30.920Z,0.40
2022-10-26T10:31:00.549Z,0.52
2022-10-26T10:33:39.773Z,0.50
2022-10-26T10:36:10.603Z,0.57
2022-10-26T10:38:42.167Z,0.88
2022-10-26T10:41:18.325Z,0.70
2022-10-26T10:43:51.615Z,0.60
2022-10-26T10:46:21.353Z,0.60
2022-10-26T10:48:50.497Z,0.50
2022-10-26T10:51:22.539Z,0.55
2022-10-26T10:53:53.338Z,0.93
2022-10-26T10:56:36.724Z,0.80
2022-10-26T10:59:22.908Z,0.70
2022-10-26T11:01:52.978Z,0.60
2022-10-26T11:04:36.460Z,0.57
2022-10-26T11:07:06.848Z,0.80
2022-10-26T11:09:39.407Z,0.90
2022-10-26T11:12:11.655Z,0.80
2022-10-26T11:14:41.918Z,0.90
2022-10-26T11:17:17.991Z,0.60
2022-10-26T11:19:50.058Z,0.70
2022-10-26T11:22:19.430Z,0.60
2022-10-26T11:24:51.813Z,0.60
2022-10-26T11:27:22.661Z,0.70
2022-10-26T11:29:55.833Z,0.70
2022-10-26T11:32:25.566Z,0.70
2022-10-26T11:34:57.664Z,0.80
2022-10-26T11:37:29.849Z,1.20
2022-10-26T11:40:07.687Z,1.17
2022-10-26T11:42:38.205Z,1.00
2022-10-26T11:45:12.057Z,1.10
2022-10-26T11:47:44.710Z,1.27
2022-10-26T11:50:17.908Z,1.30
2022-10-26T11:52:49.241Z,1.30
2022-10-26T11:55:20.760Z,1.08
2022-10-26T11:57:49.683Z,1.33
2022-10-26T12:00:20.609Z,1.20
2022-10-26T12:02:51.570Z,1.20
2022-10-26T12:05:22.365Z,1.30
2022-10-26T12:07:52.923Z,1.40
2022-10-26T12:10:26.468Z,1.35
2022-10-26T12:12:59.336Z,1.13
2022-10-26T12:15:40.241Z,1.10
2022-10-26T12:18:36.841Z,1.05
2022-10-26T12:21:11.917Z,0.95
2022-10-26T12:23:51.435Z,0.95
2022-10-26T12:26:50.505Z,0.93
2022-10-26T12:29:36.682Z,0.90
2022-10-26T12:32:05.924Z,0.80
2022-10-26T12:34:58.465Z,0.80
2022-10-26T12:37:31.706Z,0.80
2022-10-26T12:40:15.233Z,0.88
2022-10-26T12:42:44.005Z,0.80
2022-10-26T12:45:22.357Z,0.90
2022-10-26T12:48:10.768Z,0.90
2022-10-26T12:50:49.585Z,0.90
2022-10-26T12:53:19.668Z,0.80
2022-10-26T12:56:07.940Z,0.70
2022-10-26T12:58:54.946Z,0.88
2022-10-26T13:01:45.787Z,0.95
2022-10-26T13:04:29.331Z,1.00
2022-10-26T13:07:12.150Z,0.70
2022-10-26T13:09:40.956Z,0.80
2022-10-26T13:12:09.574Z,0.70
2022-10-26T13:14:41.174Z,0.73
2022-10-26T13:17:23.914Z,0.75
2022-10-26T13:19:56.987Z,1.00
2022-10-26T13:22:26.065Z,1.10
2022-10-26T13:24:56.068Z,0.80
2022-10-26T13:27:26.614Z,1.60
2022-10-26T13:30:14.434Z,1.10
2022-10-26T13:32:44.697Z,1.05
2022-10-26T13:35:14.569Z,1.10
2022-10-26T13:37:47.116Z,1.00
2022-10-26T13:40:19.307Z,1.30
2022-10-26T13:42:49.770Z,0.88
2022-10-26T13:45:20.541Z,0.90
2022-10-26T13:47:54.241Z,0.90
2022-10-26T13:50:27.650Z,0.90
2022-10-26T13:53:00.440Z,0.93
2022-10-26T13:55:30.897Z,0.80
2022-10-26T13:58:04.924Z,1.10
2022-10-26T14:00:33.546Z,1.20
2022-10-26T14:03:13.868Z,1.00
2022-10-26T14:05:43.994Z,0.70
2022-10-26T14:08:17.917Z,0.93
2022-10-26T14:10:48.820Z,0.80
2022-10-26T14:13:19.209Z,0.90
2022-10-26T14:15:48.173Z,1.20
2022-10-26T14:18:19.289Z,0.90
2022-10-26T14:20:51.775Z,0.77
2022-10-26T14:23:30.538Z,1.00
2022-10-26T14:25:59.605Z,0.88
2022-10-26T14:28:29.056Z,0.75
2022-10-26T14:31:14.056Z,1.00
2022-10-26T14:33:46.700Z,1.13
2022-10-26T14:36:15.803Z,1.20
2022-10-26T14:38:45.957Z,0.93
2022-10-26T14:41:15.949Z,0.90
2022-10-26T14:43:45.112Z,0.80
2022-10-26T14:46:16.147Z,0.85
2022-10-26T14:48:54.400Z,1.00
2022-10-26T14:51:23.807Z,1.00
2022-10-26T14:53:53.064Z,0.90
2022-10-26T14:56:25.768Z,0.88
2022-10-26T14:58:54.925Z,0.93
2022-10-26T15:01:32.057Z,0.90
2022-10-26T15:04:06.011Z,0.80
2022-10-26T15:06:36.944Z,0.90
2022-10-26T15:09:06.883Z,1.13
2022-10-26T15:11:36.498Z,1.00
2022-10-26T15:14:05.140Z,1.42
2022-10-26T15:16:36.094Z,1.23
2022-10-26T15:19:11.747Z,1.27
2022-10-26T15:21:41.761Z,1.20
2022-10-26T15:24:16.904Z,1.80
2022-10-26T15:26:45.550Z,1.25
2022-10-26T15:29:29.160Z,1.40
2022-10-26T15:32:01.855Z,1.27
2022-10-26T15:34:31.865Z,1.10
2022-10-26T15:37:00.882Z,1.10
2022-10-26T15:39:29.496Z,1.10
2022-10-26T15:41:58.101Z,0.93
2022-10-26T15:44:26.647Z,1.15
2022-10-26T15:46:55.184Z,1.20
2022-10-26T15:49:23.827Z,1.10
2022-10-26T15:51:53.786Z,1.45
2022-10-26T15:54:22.449Z,3.33
2022-10-26T15:56:50.997Z,0.93
2022-10-26T15:59:20.588Z,1.20
2022-10-26T16:01:52.088Z,1.20
2022-10-26T16:04:20.777Z,1.27
2022-10-26T16:06:49.677Z,1.17
2022-10-26T16:09:20.297Z,1.48
2022-10-26T16:11:48.977Z,1.20
2022-10-26T16:14:17.542Z,1.70
2022-10-26T16:16:46.122Z,1.40
2022-10-26T16:19:31.481Z,1.38
2022-10-26T16:22:00.410Z,1.45
2022-10-26T16:24:31.131Z,1.90
2022-10-26T16:27:00.045Z,1.50
2022-10-26T16:29:28.692Z,1.80
2022-10-26T16:31:57.228Z,1.52
2022-10-26T16:34:25.785Z,1.65
2022-10-26T16:36:54.345Z,1.40
2022-10-26T16:39:22.906Z,1.50
2022-10-26T16:41:52.839Z,1.65
2022-10-26T16:44:21.421Z,1.38
2022-10-26T16:46:50.021Z,1.60
2022-10-26T16:49:18.915Z,1.55
2022-10-26T16:51:47.490Z,1.60
2022-10-26T16:54:16.176Z,1.38
2022-10-26T16:56:44.743Z,1.50
2022-10-26T16:59:14.693Z,1.83
2022-10-26T17:01:43.352Z,1.67
2022-10-26T17:04:12.096Z,1.38
2022-10-26T17:06:40.642Z,1.27
2022-10-26T17:09:09.189Z,1.45
2022-10-26T17:11:37.778Z,1.23
2022-10-26T17:14:06.318Z,1.48
2022-10-26T17:16:36.353Z,1.40
2022-10-26T17:19:04.976Z,1.55
2022-10-26T17:21:34.845Z,1.73
2022-10-26T17:24:03.807Z,1.77
2022-10-26T17:26:32.425Z,1.50
2022-10-26T17:29:01.047Z,1.50
2022-10-26T17:31:29.863Z,1.73
2022-10-26T17:33:59.879Z,1.60
2022-10-26T17:36:28.811Z,1.50
2022-10-26T17:38:57.878Z,1.27
2022-10-26T17:41:27.100Z,1.77
2022-10-26T17:43:56.015Z,1.95
2022-10-26T17:46:25.793Z,1.65
2022-10-26T17:48:57.981Z,1.65
2022-10-26T17:51:28.340Z,1.75
2022-10-26T17:53:57.205Z,1.90
2022-10-26T17:56:26.497Z,1.73
2022-10-26T17:58:55.465Z,1.63
2022-10-26T18:01:24.385Z,1.50
2022-10-26T18:03:53.399Z,1.73
2022-10-26T18:06:22.169Z,1.83
2022-10-26T18:08:52.237Z,1.55
2022-10-26T18:11:26.491Z,1.83
2022-10-26T18:13:56.341Z,1.60
2022-10-26T18:16:25.391Z,1.67
2022-10-26T18:19:00.332Z,1.55
2022-10-26T18:21:30.207Z,1.38
2022-10-26T18:24:00.194Z,1.40
2022-10-26T18:26:29.859Z,1.52
2022-10-26T18:28:59.079Z,1.50
2022-10-26T18:31:28.304Z,1.75
2022-10-26T18:33:57.376Z,2.10
2022-10-26T18:36:26.080Z,1.65
2022-10-26T18:38:54.830Z,1.60
2022-10-26T18:41:25.478Z,1.30
2022-10-26T18:43:55.036Z,1.17
2022-10-26T18:46:24.696Z,1.30
2022-10-26T18:48:53.405Z,1.20
2022-10-26T18:51:23.485Z,1.35
2022-10-26T18:53:52.045Z,1.50
2022-10-26T18:56:21.897Z,1.27
2022-10-26T18:58:52.414Z,1.15
2022-10-26T19:01:22.311Z,1.30
2022-10-26T19:03:54.720Z,1.05
2022-10-26T19:06:24.916Z,1.10
2022-10-26T19:08:53.967Z,1.30
2022-10-26T19:11:23.410Z,1.25
2022-10-26T19:13:54.107Z,1.30
2022-10-26T19:19:12.294Z,1.40
2022-10-26T19:21:40.933Z,1.23
2022-10-26T19:24:13.104Z,1.20
2022-10-26T19:26:43.690Z,1.20
2022-10-26T19:29:15.580Z,1.30
2022-10-26T19:31:45.049Z,1.30
2022-10-26T19:34:14.157Z,1.27
2022-10-26T19:36:45.088Z,1.30
2022-10-26T19:39:14.570Z,1.50
2022-10-26T19:41:43.161Z,1.33
2022-10-26T19:44:12.380Z,1.38
2022-10-26T19:46:43.416Z,1.30
2022-10-26T19:49:12.844Z,1.08
2022-10-26T19:51:41.613Z,1.30
2022-10-26T19:54:10.173Z,1.33
2022-10-26T19:56:39.340Z,1.02
2022-10-26T19:59:09.258Z,1.10
2022-10-26T20:01:38.026Z,1.50
2022-10-26T20:04:08.066Z,1.20
2022-10-26T20:06:36.649Z,1.23
2022-10-26T20:09:05.416Z,1.40
2022-10-26T20:11:36.573Z,1.08
2022-10-26T20:14:07.511Z,1.08
2022-10-26T20:16:36.124Z,1.10
2022-10-26T20:19:04.711Z,1.10
2022-10-26T20:21:35.316Z,1.13
2022-10-26T20:24:07.841Z,1.30
2022-10-26T20:26:40.052Z,1.50
2022-10-26T20:29:08.649Z,1.15
2022-10-26T20:31:37.195Z,1.23
2022-10-26T20:34:05.824Z,1.38
2022-10-26T20:36:35.781Z,1.50
2022-10-26T20:39:05.536Z,1.30
2022-10-26T20:41:34.372Z,1.40
2022-10-26T20:44:03.147Z,1.60
2022-10-26T20:46:32.109Z,1.58
2022-10-26T20:49:00.995Z,1.40
2022-10-26T20:51:39.972Z,1.60
2022-10-26T20:54:16.108Z,1.52
2022-10-26T20:56:45.815Z,1.73
2022-10-26T20:59:18.314Z,1.95
2022-10-26T21:01:46.975Z,1.70
2022-10-26T21:04:15.556Z,1.52
2022-10-26T21:06:44.119Z,1.45
2022-10-26T21:09:14.182Z,1.70
2022-10-26T21:11:43.256Z,1.48
2022-10-26T21:14:11.828Z,1.35
2022-10-26T21:16:40.413Z,1.65
2022-10-26T21:19:08.959Z,1.73
2022-10-26T21:21:37.537Z,1.80
2022-10-26T21:24:06.367Z,1.77
2022-10-26T21:26:36.361Z,1.40
2022-10-26T21:29:05.033Z,1.55
2022-10-26T21:31:34.832Z,1.70
2022-10-26T21:34:04.573Z,1.45
2022-10-26T21:36:33.130Z,1.40
2022-10-26T21:39:01.680Z,1.83
2022-10-26T21:41:30.263Z,1.50
2022-10-26T21:44:08.918Z,1.50
2022-10-26T21:46:39.004Z,1.88
2022-10-26T21:49:07.659Z,1.60
2022-10-26T21:51:36.277Z,1.55
2022-10-26T21:54:05.027Z,1.42
2022-10-26T21:56:33.575Z,1.38
2022-10-26T21:59:03.569Z,1.20
2022-10-26T22:01:32.274Z,1.55
2022-10-26T22:04:00.944Z,1.50
2022-10-26T22:06:29.520Z,1.40
2022-10-26T22:08:58.062Z,1.67
2022-10-26T22:11:27.041Z,1.50
2022-10-26T22:13:55.781Z,1.45
2022-10-26T22:16:26.380Z,1.80
2022-10-26T22:18:56.037Z,1.70
2022-10-26T22:21:25.191Z,1.55
2022-10-26T22:23:53.801Z,1.38
2022-10-26T22:26:23.858Z,1.50
2022-10-26T22:28:53.509Z,1.40
2022-10-26T22:31:22.913Z,1.50
2022-10-26T22:33:54.863Z,1.67
2022-10-26T22:36:23.731Z,1.30
2022-10-26T22:38:52.584Z,1.50
2022-10-26T22:41:21.537Z,1.40
2022-10-26T22:43:51.315Z,1.92
2022-10-26T22:46:20.952Z,1.80
2022-10-26T22:48:49.893Z,1.55
2022-10-26T22:51:20.700Z,1.67
2022-10-26T22:53:52.919Z,1.42
2022-10-26T22:56:21.924Z,1.40
2022-10-26T22:58:52.005Z,1.30
2022-10-26T23:01:21.882Z,1.58
2022-10-26T23:03:50.575Z,1.13
2022-10-26T23:06:21.123Z,1.25
2022-10-26T23:08:49.760Z,1.50
2022-10-26T23:11:19.909Z,1.30
2022-10-26T23:13:48.689Z,1.42
2022-10-26T23:16:18.985Z,1.30
2022-10-26T23:18:47.902Z,1.42
2022-10-26T23:21:17.156Z,1.60
2022-10-26T23:23:47.153Z,1.77
2022-10-26T23:26:16.837Z,1.70
2022-10-26T23:28:45.752Z,1.55
2022-10-26T23:31:16.321Z,1.50
2022-10-26T23:33:44.971Z,1.83
2022-10-26T23:36:13.791Z,1.83
2022-10-26T23:38:42.344Z,1.67
2022-10-26T23:41:13.102Z,1.70
2022-10-26T23:43:42.148Z,1.90
2022-10-26T23:46:10.996Z,1.50
2022-10-26T23:48:39.565Z,1.83
2022-10-26T23:51:08.147Z,1.50
2022-10-26T23:53:36.709Z,1.55
2022-10-26T23:56:05.372Z,3.00
2022-10-26T23:58:35.388Z,1.55
